Flight Track Log - Related Links

Times and Time Zones

All times are in EDT time to prevent confusion due to time zone crossing. See the AWI3551 flight status page for this flight to view local times or setup timezone preferences in your user account.

Time Position Orientation Groundspeed Altitude Reporting Facility
EDT Latitude Longitude Course Direction KTS MPH feet Rate Location/Type
Thu 05:36:31 AM 42.9333 -78.7500 173° South 157 181 1,900  Level Buffalo TRACON
Thu 05:37:37 AM 42.8833 -78.7833 206° Southwest 212 244 3,800 1,500 Climbing Buffalo TRACON
Thu 05:38:23 AM 42.8339 -78.7797 177° South 269 310 4,700 1,925 Climbing Cleveland Center
Thu 05:39:00 AM 42.6240 -78.6848 172° South  Level FlightAware Approximate
Thu 05:39:23 AM 42.7586 -78.7622 170° South 282 325 7,200  Level Cleveland Center
Thu 05:40:00 AM 42.5305 -78.6662 173° South  Level FlightAware Approximate
Thu 05:40:23 AM 42.6728 -78.7392 169° South 282 325 9,900  Level Cleveland Center
Thu 05:41:00 AM 42.4367 -78.6506 173° South  Level FlightAware Approximate
Thu 05:41:23 AM 42.6142 -78.7239 169° South 276 318 11,500  Level Cleveland Center
Thu 05:42:23 AM 42.5158 -78.7072 173° South 289 333 14,500 2,550 Climbing Cleveland Center
Thu 05:43:23 AM 42.4300 -78.6789 166° South 305 351 16,600 1,900 Climbing Cleveland Center
Thu 05:44:23 AM 42.3439 -78.6392 161° South 310 357 18,300 1,650 Climbing Cleveland Center
Thu 05:45:23 AM 42.2597 -78.5997 161° South 321 369 19,900 1,750 Climbing Cleveland Center
Thu 05:46:23 AM 42.1694 -78.5550 160° South 332 382 21,800 1,500 Climbing Cleveland Center
Thu 05:47:23 AM 42.0789 -78.5158 162° South 338 389 22,900 600 Climbing Cleveland Center
Thu 05:48:23 AM 41.9803 -78.4686 160° South 357 411 23,000 50 Climbing Cleveland Center
Thu 05:49:23 AM 41.8708 -78.4192 161° South 385 443 23,000  Level Cleveland Center
Thu 05:50:23 AM 41.7658 -78.3756 163° South 398 458 23,000  Level Cleveland Center
Thu 05:51:23 AM 41.6586 -78.3264 161° South 403 464 23,000  Level Cleveland Center
Thu 05:51:58 AM 41.6033 -78.3033 163° South 404 465 23,000  Level New York Center
Thu 05:52:58 AM 41.4981 -78.2556 161° South 404 465 23,000  Level New York Center
Thu 05:53:59 AM 41.3908 -78.2019 159° South 409 471 23,000  Level New York Center
Thu 05:54:58 AM 41.2975 -78.1642 163° South 409 471 23,000  Level New York Center
Thu 05:55:58 AM 41.1961 -78.1172 161° South 398 458 23,000  Level New York Center
Thu 05:56:56 AM 41.0989 -78.0736 161° South 387 445 23,000  Level New York Center
Thu 05:57:58 AM 41.0033 -78.0331 162° South 376 433 23,000 -488 Level New York Center
Thu 05:58:59 AM 40.9103 -77.9847 159° South 370 426 22,000 -1,322 Descending New York Center
Thu 05:59:56 AM 40.8414 -77.8842 132° Southeast 358 412 20,400 -1,525 Descending New York Center
Thu 06:00:57 AM 40.7747 -77.7786 130° Southeast 364 419 19,000 -1,180 Descending New York Center
Thu 06:01:58 AM 40.7078 -77.6758 131° Southeast 369 425 18,000 -492 Descending New York Center
Thu 06:02:59 AM 40.6347 -77.5700 132° Southeast 363 418 18,000  Level New York Center
Thu 06:03:59 AM 40.5772 -77.4850 132° Southeast 358 412 18,000  Level New York Center
Thu 06:04:57 AM 40.5058 -77.3797 132° Southeast 353 406 18,000  Level New York Center
Thu 06:05:57 AM 40.4700 -77.2753 114° Southeast 354 407 18,000  Level New York Center
Thu 06:06:56 AM 40.4339 -77.1356 109° East 363 418 18,000  Level New York Center
Thu 06:07:57 AM 40.4047 -77.0183 108° East 376 433 18,000  Level New York Center
Thu 06:08:57 AM 40.3683 -76.8733 108° East 376 433 18,000 -750 Level New York Center
Thu 06:09:57 AM 40.3372 -76.7481 108° East 376 433 16,500 -1,488 Descending New York Center
Thu 06:10:58 AM 40.3056 -76.6336 110° East 364 419 15,000 -1,537 Descending New York Center
Thu 06:11:58 AM 40.2800 -76.5172 106° East 345 397 13,400 -1,500 Descending New York Center
Thu 06:12:58 AM 40.2503 -76.4006 108° East 334 384 12,000 -1,537 Descending New York Center
Thu 06:13:59 AM 40.2222 -76.2867 108° East 334 384 10,300 -1,190 Descending New York Center
Thu 06:14:59 AM 40.1956 -76.1842 109° East 319 367 9,600 -1,119 Descending New York Center
Thu 06:15:57 AM 40.1706 -76.0953 110° East 275 316 8,100 -763 Descending New York Center
Thu 06:16:57 AM 40.1492 -76.0119 109° East 255 293 8,100  Level New York Center
Thu 06:17:58 AM 40.1222 -75.9122 109° East 255 293 8,100 -49 Level New York Center
Thu 06:18:59 AM 40.0614 -75.8781 157° South 244 281 8,000 -600 Descending New York Center
Thu 06:19:58 AM 39.9828 -75.8642 172° South 260 299 6,900 -1,008 Descending New York Center
Thu 06:20:58 AM 39.9275 -75.8411 162° South 251 289 6,000 -694 Descending New York Center
Thu 06:21:59 AM 39.8822 -75.7756 132° Southeast 222 255 5,500 -706 Descending New York Center
Thu 06:22:57 AM 39.8556 -75.7169 121° Southeast 216 249 4,600 -769 Descending New York Center
Thu 06:23:56 AM 39.8506 -75.6381 95° East 197 227 4,000 -555 Descending New York Center
Thu 06:24:56 AM 39.8469 -75.5728 94° East 197 227 3,500 -935 Descending New York Center
Thu 06:25:13 AM 39.8500 -75.5500 80° East 207 238 2,800 -1,169 Descending Philadelphia TRACON
Thu 06:26:13 AM 39.8500 -75.4667 90° East 187 215 2,000 -800 Descending Philadelphia TRACON

Login

Don't have an account? Register now (free) for customized features, flight alerts, and more!